sensor_id;sensor_type;location;lat;lon;timestamp;P1;durP1;ratioP1;P2;durP2;ratioP2
44145;SDS011;29809;52.432;4.780;2024-03-25T00:01:19;4.63;;;1.40;;
44145;SDS011;29809;52.432;4.780;2024-03-25T00:03:44;6.13;;;1.98;;
44145;SDS011;29809;52.432;4.780;2024-03-25T00:06:09;4.30;;;1.60;;
44145;SDS011;29809;52.432;4.780;2024-03-25T00:08:34;4.53;;;1.77;;
44145;SDS011;29809;52.432;4.780;2024-03-25T00:11:00;3.45;;;1.58;;
44145;SDS011;29809;52.432;4.780;2024-03-25T00:13:25;5.20;;;1.95;;
44145;SDS011;29809;52.432;4.780;2024-03-25T00:15:50;5.32;;;2.00;;
44145;SDS011;29809;52.432;4.780;2024-03-25T00:18:15;3.70;;;1.80;;
44145;SDS011;29809;52.432;4.780;2024-03-25T00:20:41;3.25;;;1.40;;
44145;SDS011;29809;52.432;4.780;2024-03-25T00:23:06;5.35;;;2.10;;
44145;SDS011;29809;52.432;4.780;2024-03-25T00:25:32;5.57;;;2.00;;
44145;SDS011;29809;52.432;4.780;2024-03-25T00:27:57;6.10;;;1.98;;
44145;SDS011;29809;52.432;4.780;2024-03-25T00:30:22;3.72;;;1.70;;
44145;SDS011;29809;52.432;4.780;2024-03-25T00:32:49;3.53;;;1.67;;
44145;SDS011;29809;52.432;4.780;2024-03-25T00:35:14;2.47;;;1.40;;
44145;SDS011;29809;52.432;4.780;2024-03-25T00:37:39;3.67;;;1.52;;
44145;SDS011;29809;52.432;4.780;2024-03-25T00:40:05;4.43;;;1.80;;
44145;SDS011;29809;52.432;4.780;2024-03-25T00:42:32;3.85;;;1.90;;
44145;SDS011;29809;52.432;4.780;2024-03-25T00:44:57;4.93;;;1.73;;
44145;SDS011;29809;52.432;4.780;2024-03-25T00:47:23;6.53;;;2.13;;
44145;SDS011;29809;52.432;4.780;2024-03-25T00:49:48;3.50;;;1.42;;
44145;SDS011;29809;52.432;4.780;2024-03-25T00:52:13;3.72;;;1.70;;
44145;SDS011;29809;52.432;4.780;2024-03-25T00:54:39;4.53;;;1.60;;
44145;SDS011;29809;52.432;4.780;2024-03-25T00:57:04;5.82;;;1.63;;
44145;SDS011;29809;52.432;4.780;2024-03-25T00:59:29;4.03;;;1.90;;
44145;SDS011;29809;52.432;4.780;2024-03-25T01:01:54;4.10;;;1.80;;
44145;SDS011;29809;52.432;4.780;2024-03-25T01:04:20;7.15;;;1.65;;
44145;SDS011;29809;52.432;4.780;2024-03-25T01:06:45;4.18;;;1.55;;
44145;SDS011;29809;52.432;4.780;2024-03-25T01:09:10;4.90;;;1.48;;
44145;SDS011;29809;52.432;4.780;2024-03-25T01:11:35;5.20;;;1.30;;
44145;SDS011;29809;52.432;4.780;2024-03-25T01:14:00;3.13;;;1.42;;
44145;SDS011;29809;52.432;4.780;2024-03-25T01:16:26;3.53;;;1.77;;
44145;SDS011;29809;52.432;4.780;2024-03-25T01:18:51;3.55;;;1.15;;
44145;SDS011;29809;52.432;4.780;2024-03-25T01:21:17;3.65;;;1.63;;
44145;SDS011;29809;52.432;4.780;2024-03-25T01:23:42;3.33;;;1.75;;
44145;SDS011;29809;52.432;4.780;2024-03-25T01:26:07;4.85;;;1.70;;
44145;SDS011;29809;52.432;4.780;2024-03-25T01:28:32;3.08;;;1.48;;
44145;SDS011;29809;52.432;4.780;2024-03-25T01:30:58;4.45;;;1.25;;
44145;SDS011;29809;52.432;4.780;2024-03-25T01:33:23;2.65;;;1.25;;
44145;SDS011;29809;52.432;4.780;2024-03-25T01:35:48;5.25;;;1.48;;
44145;SDS011;29809;52.432;4.780;2024-03-25T01:38:14;4.10;;;1.55;;
44145;SDS011;29809;52.432;4.780;2024-03-25T01:40:39;3.72;;;1.40;;
44145;SDS011;29809;52.432;4.780;2024-03-25T01:43:04;2.20;;;1.05;;
44145;SDS011;29809;52.432;4.780;2024-03-25T01:45:30;4.43;;;1.77;;
44145;SDS011;29809;52.432;4.780;2024-03-25T01:47:56;1.70;;;1.30;;
44145;SDS011;29809;52.432;4.780;2024-03-25T01:50:22;3.17;;;1.40;;
44145;SDS011;29809;52.432;4.780;2024-03-25T01:52:47;4.78;;;1.63;;
44145;SDS011;29809;52.432;4.780;2024-03-25T01:55:15;3.13;;;1.63;;
44145;SDS011;29809;52.432;4.780;2024-03-25T01:57:42;3.95;;;1.92;;
44145;SDS011;29809;52.432;4.780;2024-03-25T02:00:07;3.88;;;1.45;;
44145;SDS011;29809;52.432;4.780;2024-03-25T02:02:33;3.08;;;1.50;;
44145;SDS011;29809;52.432;4.780;2024-03-25T02:05:00;5.05;;;1.50;;
44145;SDS011;29809;52.432;4.780;2024-03-25T02:07:27;3.10;;;1.60;;
44145;SDS011;29809;52.432;4.780;2024-03-25T02:09:53;4.90;;;2.05;;
44145;SDS011;29809;52.432;4.780;2024-03-25T02:12:19;4.30;;;1.50;;
44145;SDS011;29809;52.432;4.780;2024-03-25T02:14:44;6.55;;;1.70;;
44145;SDS011;29809;52.432;4.780;2024-03-25T02:17:09;2.10;;;1.25;;
44145;SDS011;29809;52.432;4.780;2024-03-25T02:19:35;4.75;;;1.27;;
44145;SDS011;29809;52.432;4.780;2024-03-25T02:22:01;3.78;;;1.73;;
44145;SDS011;29809;52.432;4.780;2024-03-25T02:24:26;2.97;;;1.45;;
44145;SDS011;29809;52.432;4.780;2024-03-25T02:26:52;3.22;;;1.45;;
44145;SDS011;29809;52.432;4.780;2024-03-25T02:29:18;2.63;;;1.25;;
44145;SDS011;29809;52.432;4.780;2024-03-25T02:31:43;3.90;;;1.60;;
44145;SDS011;29809;52.432;4.780;2024-03-25T02:34:08;3.78;;;1.65;;
44145;SDS011;29809;52.432;4.780;2024-03-25T02:36:33;4.00;;;1.45;;
44145;SDS011;29809;52.432;4.780;2024-03-25T02:38:59;4.43;;;1.60;;
44145;SDS011;29809;52.432;4.780;2024-03-25T02:41:24;4.57;;;1.55;;
44145;SDS011;29809;52.432;4.780;2024-03-25T02:43:49;2.08;;;1.00;;
44145;SDS011;29809;52.432;4.780;2024-03-25T02:46:15;3.13;;;1.67;;
44145;SDS011;29809;52.432;4.780;2024-03-25T02:48:40;4.40;;;1.52;;
44145;SDS011;29809;52.432;4.780;2024-03-25T02:51:05;5.28;;;1.83;;
44145;SDS011;29809;52.432;4.780;2024-03-25T02:53:30;2.65;;;1.00;;
44145;SDS011;29809;52.432;4.780;2024-03-25T02:55:56;3.78;;;1.80;;
44145;SDS011;29809;52.432;4.780;2024-03-25T02:58:21;2.65;;;1.70;;
44145;SDS011;29809;52.432;4.780;2024-03-25T03:00:46;3.05;;;1.15;;
44145;SDS011;29809;52.432;4.780;2024-03-25T03:03:12;2.97;;;1.20;;
44145;SDS011;29809;52.432;4.780;2024-03-25T03:05:37;2.47;;;1.35;;
44145;SDS011;29809;52.432;4.780;2024-03-25T03:08:02;4.40;;;1.67;;
44145;SDS011;29809;52.432;4.780;2024-03-25T03:10:27;3.38;;;1.67;;
44145;SDS011;29809;52.432;4.780;2024-03-25T03:12:53;4.03;;;1.50;;
44145;SDS011;29809;52.432;4.780;2024-03-25T03:15:18;5.03;;;1.52;;
44145;SDS011;29809;52.432;4.780;2024-03-25T03:17:43;5.20;;;1.58;;
44145;SDS011;29809;52.432;4.780;2024-03-25T03:20:09;3.65;;;1.77;;
44145;SDS011;29809;52.432;4.780;2024-03-25T03:22:35;4.78;;;1.55;;
44145;SDS011;29809;52.432;4.780;2024-03-25T03:25:00;2.55;;;1.52;;
44145;SDS011;29809;52.432;4.780;2024-03-25T03:27:25;3.58;;;1.45;;
44145;SDS011;29809;52.432;4.780;2024-03-25T03:29:50;3.95;;;1.15;;
44145;SDS011;29809;52.432;4.780;2024-03-25T03:32:16;2.95;;;1.60;;
44145;SDS011;29809;52.432;4.780;2024-03-25T03:34:41;4.75;;;1.40;;
44145;SDS011;29809;52.432;4.780;2024-03-25T03:37:06;2.65;;;1.20;;
44145;SDS011;29809;52.432;4.780;2024-03-25T03:39:32;6.18;;;1.83;;
44145;SDS011;29809;52.432;4.780;2024-03-25T03:41:57;4.55;;;1.38;;
44145;SDS011;29809;52.432;4.780;2024-03-25T03:44:22;2.92;;;1.13;;
44145;SDS011;29809;52.432;4.780;2024-03-25T03:46:47;4.32;;;1.65;;
44145;SDS011;29809;52.432;4.780;2024-03-25T03:49:12;4.22;;;2.00;;
44145;SDS011;29809;52.432;4.780;2024-03-25T03:51:38;4.25;;;1.92;;
44145;SDS011;29809;52.432;4.780;2024-03-25T03:54:03;2.22;;;1.38;;
44145;SDS011;29809;52.432;4.780;2024-03-25T03:56:28;4.72;;;1.27;;
44145;SDS011;29809;52.432;4.780;2024-03-25T03:58:53;2.10;;;1.15;;
44145;SDS011;29809;52.432;4.780;2024-03-25T04:01:19;3.08;;;1.40;;
44145;SDS011;29809;52.432;4.780;2024-03-25T04:03:44;3.50;;;1.40;;
44145;SDS011;29809;52.432;4.780;2024-03-25T04:06:10;3.40;;;1.40;;
44145;SDS011;29809;52.432;4.780;2024-03-25T04:08:36;2.55;;;1.13;;
44145;SDS011;29809;52.432;4.780;2024-03-25T04:11:02;4.38;;;1.55;;
44145;SDS011;29809;52.432;4.780;2024-03-25T04:13:27;3.53;;;1.45;;
44145;SDS011;29809;52.432;4.780;2024-03-25T04:15:52;2.67;;;1.45;;
44145;SDS011;29809;52.432;4.780;2024-03-25T04:18:17;4.00;;;1.45;;
44145;SDS011;29809;52.432;4.780;2024-03-25T04:20:44;2.58;;;1.20;;
44145;SDS011;29809;52.432;4.780;2024-03-25T04:23:09;2.75;;;1.33;;
44145;SDS011;29809;52.432;4.780;2024-03-25T04:25:34;1.77;;;0.90;;
44145;SDS011;29809;52.432;4.780;2024-03-25T04:28:02;3.78;;;1.60;;
44145;SDS011;29809;52.432;4.780;2024-03-25T04:30:28;4.63;;;1.35;;
44145;SDS011;29809;52.432;4.780;2024-03-25T04:32:53;3.47;;;1.45;;
44145;SDS011;29809;52.432;4.780;2024-03-25T04:35:18;2.67;;;1.63;;
44145;SDS011;29809;52.432;4.780;2024-03-25T04:37:43;1.73;;;1.17;;
44145;SDS011;29809;52.432;4.780;2024-03-25T04:40:09;3.85;;;1.60;;
44145;SDS011;29809;52.432;4.780;2024-03-25T04:42:34;3.08;;;1.58;;
44145;SDS011;29809;52.432;4.780;2024-03-25T04:44:59;4.00;;;1.52;;
44145;SDS011;29809;52.432;4.780;2024-03-25T04:47:24;4.63;;;1.50;;
44145;SDS011;29809;52.432;4.780;2024-03-25T04:49:50;1.70;;;1.02;;
44145;SDS011;29809;52.432;4.780;2024-03-25T04:52:15;3.03;;;1.10;;
44145;SDS011;29809;52.432;4.780;2024-03-25T04:54:43;3.97;;;1.40;;
44145;SDS011;29809;52.432;4.780;2024-03-25T04:57:09;2.90;;;1.45;;
44145;SDS011;29809;52.432;4.780;2024-03-25T04:59:34;3.03;;;1.15;;
44145;SDS011;29809;52.432;4.780;2024-03-25T05:01:59;5.15;;;1.60;;
44145;SDS011;29809;52.432;4.780;2024-03-25T05:04:24;3.97;;;1.58;;
44145;SDS011;29809;52.432;4.780;2024-03-25T05:06:50;4.85;;;1.52;;
44145;SDS011;29809;52.432;4.780;2024-03-25T05:09:15;2.22;;;1.08;;
44145;SDS011;29809;52.432;4.780;2024-03-25T05:11:41;1.60;;;0.90;;
44145;SDS011;29809;52.432;4.780;2024-03-25T05:14:06;2.60;;;1.48;;
44145;SDS011;29809;52.432;4.780;2024-03-25T05:16:32;3.08;;;1.33;;
44145;SDS011;29809;52.432;4.780;2024-03-25T05:18:57;3.65;;;1.40;;
44145;SDS011;29809;52.432;4.780;2024-03-25T05:21:23;2.55;;;1.10;;
44145;SDS011;29809;52.432;4.780;2024-03-25T05:23:48;2.28;;;1.15;;
44145;SDS011;29809;52.432;4.780;2024-03-25T05:26:13;3.05;;;1.25;;
44145;SDS011;29809;52.432;4.780;2024-03-25T05:28:38;2.17;;;0.90;;
44145;SDS011;29809;52.432;4.780;2024-03-25T05:31:10;3.25;;;0.95;;
44145;SDS011;29809;52.432;4.780;2024-03-25T05:33:35;3.25;;;1.20;;
44145;SDS011;29809;52.432;4.780;2024-03-25T05:36:01;3.40;;;1.45;;
44145;SDS011;29809;52.432;4.780;2024-03-25T05:38:27;4.15;;;1.58;;
44145;SDS011;29809;52.432;4.780;2024-03-25T05:40:52;2.10;;;1.30;;
44145;SDS011;29809;52.432;4.780;2024-03-25T05:43:18;3.15;;;1.42;;
44145;SDS011;29809;52.432;4.780;2024-03-25T05:45:50;4.32;;;1.48;;
44145;SDS011;29809;52.432;4.780;2024-03-25T05:48:16;8.73;;;1.90;;
44145;SDS011;29809;52.432;4.780;2024-03-25T05:50:41;5.45;;;1.65;;
44145;SDS011;29809;52.432;4.780;2024-03-25T05:53:06;2.50;;;1.70;;
44145;SDS011;29809;52.432;4.780;2024-03-25T05:55:31;2.58;;;1.40;;
44145;SDS011;29809;52.432;4.780;2024-03-25T05:57:56;3.55;;;1.55;;
44145;SDS011;29809;52.432;4.780;2024-03-25T06:00:22;4.18;;;1.67;;
44145;SDS011;29809;52.432;4.780;2024-03-25T06:02:47;2.00;;;1.60;;
44145;SDS011;29809;52.432;4.780;2024-03-25T06:05:12;2.42;;;1.10;;
44145;SDS011;29809;52.432;4.780;2024-03-25T06:07:37;43.70;;;14.80;;
44145;SDS011;29809;52.432;4.780;2024-03-25T06:10:03;57.80;;;19.10;;
44145;SDS011;29809;52.432;4.780;2024-03-25T06:12:28;65.88;;;20.83;;
44145;SDS011;29809;52.432;4.780;2024-03-25T06:14:53;63.85;;;18.75;;
44145;SDS011;29809;52.432;4.780;2024-03-25T06:17:18;46.70;;;15.82;;
44145;SDS011;29809;52.432;4.780;2024-03-25T06:19:43;47.10;;;15.95;;
44145;SDS011;29809;52.432;4.780;2024-03-25T06:22:09;39.08;;;14.52;;
44145;SDS011;29809;52.432;4.780;2024-03-25T06:24:34;35.85;;;14.00;;
44145;SDS011;29809;52.432;4.780;2024-03-25T06:26:59;30.65;;;13.55;;
44145;SDS011;29809;52.432;4.780;2024-03-25T06:29:24;31.92;;;13.07;;
44145;SDS011;29809;52.432;4.780;2024-03-25T06:31:49;31.73;;;12.32;;
44145;SDS011;29809;52.432;4.780;2024-03-25T06:34:33;25.92;;;10.70;;
44145;SDS011;29809;52.432;4.780;2024-03-25T06:36:58;24.88;;;10.50;;
44145;SDS011;29809;52.432;4.780;2024-03-25T06:39:23;24.90;;;9.95;;
44145;SDS011;29809;52.432;4.780;2024-03-25T06:41:49;15.25;;;7.60;;
44145;SDS011;29809;52.432;4.780;2024-03-25T06:44:15;18.73;;;8.02;;
44145;SDS011;29809;52.432;4.780;2024-03-25T06:46:41;17.20;;;7.57;;
44145;SDS011;29809;52.432;4.780;2024-03-25T06:49:06;16.92;;;7.60;;
44145;SDS011;29809;52.432;4.780;2024-03-25T06:51:31;16.73;;;7.43;;
44145;SDS011;29809;52.432;4.780;2024-03-25T06:53:56;16.40;;;7.05;;
44145;SDS011;29809;52.432;4.780;2024-03-25T06:56:21;15.07;;;6.10;;
44145;SDS011;29809;52.432;4.780;2024-03-25T06:58:47;16.23;;;6.05;;
44145;SDS011;29809;52.432;4.780;2024-03-25T07:01:12;15.27;;;6.82;;
44145;SDS011;29809;52.432;4.780;2024-03-25T07:03:37;12.48;;;6.72;;
44145;SDS011;29809;52.432;4.780;2024-03-25T07:06:03;9.20;;;5.93;;
44145;SDS011;29809;52.432;4.780;2024-03-25T07:08:28;14.75;;;6.00;;
44145;SDS011;29809;52.432;4.780;2024-03-25T07:10:55;11.00;;;5.40;;
44145;SDS011;29809;52.432;4.780;2024-03-25T07:13:20;10.68;;;5.63;;
44145;SDS011;29809;52.432;4.780;2024-03-25T07:15:45;10.25;;;4.95;;
44145;SDS011;29809;52.432;4.780;2024-03-25T07:18:10;9.40;;;4.72;;
44145;SDS011;29809;52.432;4.780;2024-03-25T07:20:38;11.77;;;5.85;;
44145;SDS011;29809;52.432;4.780;2024-03-25T07:23:03;8.02;;;4.65;;
44145;SDS011;29809;52.432;4.780;2024-03-25T07:25:28;9.32;;;4.68;;
44145;SDS011;29809;52.432;4.780;2024-03-25T07:27:54;11.77;;;5.20;;
44145;SDS011;29809;52.432;4.780;2024-03-25T07:30:19;9.85;;;4.60;;
44145;SDS011;29809;52.432;4.780;2024-03-25T07:32:47;8.82;;;4.82;;
44145;SDS011;29809;52.432;4.780;2024-03-25T07:35:12;10.52;;;5.07;;
44145;SDS011;29809;52.432;4.780;2024-03-25T07:37:38;10.60;;;4.50;;
44145;SDS011;29809;52.432;4.780;2024-03-25T07:40:03;7.45;;;4.47;;
44145;SDS011;29809;52.432;4.780;2024-03-25T07:42:29;6.38;;;3.20;;
44145;SDS011;29809;52.432;4.780;2024-03-25T07:44:55;8.40;;;4.15;;
44145;SDS011;29809;52.432;4.780;2024-03-25T07:47:20;8.85;;;3.83;;
44145;SDS011;29809;52.432;4.780;2024-03-25T07:49:45;7.50;;;3.75;;
44145;SDS011;29809;52.432;4.780;2024-03-25T07:52:11;8.50;;;4.13;;
44145;SDS011;29809;52.432;4.780;2024-03-25T07:54:36;11.43;;;4.13;;
44145;SDS011;29809;52.432;4.780;2024-03-25T07:57:03;11.35;;;3.83;;
44145;SDS011;29809;52.432;4.780;2024-03-25T07:59:28;7.32;;;3.35;;
44145;SDS011;29809;52.432;4.780;2024-03-25T08:01:54;7.90;;;3.30;;
44145;SDS011;29809;52.432;4.780;2024-03-25T08:04:19;6.40;;;3.13;;
44145;SDS011;29809;52.432;4.780;2024-03-25T08:06:44;6.50;;;2.67;;
44145;SDS011;29809;52.432;4.780;2024-03-25T08:09:09;9.15;;;2.88;;
44145;SDS011;29809;52.432;4.780;2024-03-25T08:11:35;8.32;;;3.35;;
44145;SDS011;29809;52.432;4.780;2024-03-25T08:14:00;5.20;;;2.60;;
44145;SDS011;29809;52.432;4.780;2024-03-25T08:16:25;5.93;;;3.08;;
44145;SDS011;29809;52.432;4.780;2024-03-25T08:18:50;8.32;;;3.00;;
44145;SDS011;29809;52.432;4.780;2024-03-25T08:21:16;6.45;;;2.70;;
44145;SDS011;29809;52.432;4.780;2024-03-25T08:23:44;4.95;;;2.78;;
44145;SDS011;29809;52.432;4.780;2024-03-25T08:26:09;8.35;;;3.05;;
44145;SDS011;29809;52.432;4.780;2024-03-25T08:28:34;7.88;;;2.63;;
44145;SDS011;29809;52.432;4.780;2024-03-25T08:31:00;7.53;;;2.42;;
44145;SDS011;29809;52.432;4.780;2024-03-25T08:33:25;7.47;;;2.88;;
44145;SDS011;29809;52.432;4.780;2024-03-25T08:35:50;7.50;;;2.70;;
44145;SDS011;29809;52.432;4.780;2024-03-25T08:38:15;5.82;;;2.95;;
44145;SDS011;29809;52.432;4.780;2024-03-25T08:40:41;6.68;;;2.58;;
44145;SDS011;29809;52.432;4.780;2024-03-25T08:43:06;7.55;;;2.70;;
44145;SDS011;29809;52.432;4.780;2024-03-25T08:45:31;6.57;;;2.53;;
44145;SDS011;29809;52.432;4.780;2024-03-25T08:47:56;6.97;;;2.58;;
44145;SDS011;29809;52.432;4.780;2024-03-25T08:50:22;4.20;;;1.98;;
44145;SDS011;29809;52.432;4.780;2024-03-25T08:52:47;4.53;;;2.38;;
44145;SDS011;29809;52.432;4.780;2024-03-25T08:55:12;4.57;;;2.33;;
44145;SDS011;29809;52.432;4.780;2024-03-25T08:57:37;7.85;;;2.30;;
44145;SDS011;29809;52.432;4.780;2024-03-25T09:00:03;6.25;;;2.40;;
44145;SDS011;29809;52.432;4.780;2024-03-25T09:02:29;6.38;;;2.75;;
44145;SDS011;29809;52.432;4.780;2024-03-25T09:04:54;7.55;;;2.55;;
44145;SDS011;29809;52.432;4.780;2024-03-25T09:07:19;6.65;;;2.60;;
44145;SDS011;29809;52.432;4.780;2024-03-25T09:09:44;6.25;;;2.50;;
44145;SDS011;29809;52.432;4.780;2024-03-25T09:12:28;5.68;;;2.45;;
44145;SDS011;29809;52.432;4.780;2024-03-25T09:14:53;6.32;;;2.25;;
44145;SDS011;29809;52.432;4.780;2024-03-25T09:17:21;7.18;;;2.40;;
44145;SDS011;29809;52.432;4.780;2024-03-25T09:19:48;7.38;;;2.42;;
44145;SDS011;29809;52.432;4.780;2024-03-25T09:22:13;5.72;;;2.75;;
44145;SDS011;29809;52.432;4.780;2024-03-25T09:24:38;6.65;;;2.60;;
44145;SDS011;29809;52.432;4.780;2024-03-25T09:27:03;5.40;;;2.53;;
44145;SDS011;29809;52.432;4.780;2024-03-25T09:29:29;6.00;;;2.35;;
44145;SDS011;29809;52.432;4.780;2024-03-25T09:31:54;4.57;;;2.38;;
44145;SDS011;29809;52.432;4.780;2024-03-25T09:34:22;6.63;;;3.08;;
44145;SDS011;29809;52.432;4.780;2024-03-25T09:36:48;6.68;;;2.55;;
44145;SDS011;29809;52.432;4.780;2024-03-25T09:39:13;6.10;;;2.05;;
44145;SDS011;29809;52.432;4.780;2024-03-25T09:41:38;6.72;;;2.38;;
44145;SDS011;29809;52.432;4.780;2024-03-25T09:44:07;5.47;;;2.35;;
44145;SDS011;29809;52.432;4.780;2024-03-25T09:46:33;7.35;;;2.42;;
44145;SDS011;29809;52.432;4.780;2024-03-25T09:48:59;5.80;;;2.38;;
44145;SDS011;29809;52.432;4.780;2024-03-25T09:51:24;8.38;;;2.60;;
44145;SDS011;29809;52.432;4.780;2024-03-25T09:53:50;5.53;;;2.17;;
44145;SDS011;29809;52.432;4.780;2024-03-25T09:56:15;8.07;;;3.15;;
44145;SDS011;29809;52.432;4.780;2024-03-25T09:58:40;7.63;;;2.53;;
44145;SDS011;29809;52.432;4.780;2024-03-25T10:01:06;7.28;;;2.60;;
44145;SDS011;29809;52.432;4.780;2024-03-25T10:03:32;7.57;;;2.67;;
44145;SDS011;29809;52.432;4.780;2024-03-25T10:05:57;3.90;;;2.10;;
44145;SDS011;29809;52.432;4.780;2024-03-25T10:08:22;5.78;;;2.30;;
44145;SDS011;29809;52.432;4.780;2024-03-25T10:10:51;7.03;;;2.25;;
44145;SDS011;29809;52.432;4.780;2024-03-25T10:13:16;6.97;;;2.35;;
44145;SDS011;29809;52.432;4.780;2024-03-25T10:15:41;6.97;;;2.72;;
44145;SDS011;29809;52.432;4.780;2024-03-25T10:18:06;4.38;;;2.13;;
44145;SDS011;29809;52.432;4.780;2024-03-25T10:20:33;6.20;;;2.38;;
44145;SDS011;29809;52.432;4.780;2024-03-25T10:22:59;5.45;;;1.90;;
44145;SDS011;29809;52.432;4.780;2024-03-25T10:25:28;4.30;;;2.00;;
44145;SDS011;29809;52.432;4.780;2024-03-25T10:30:19;4.45;;;1.88;;
44145;SDS011;29809;52.432;4.780;2024-03-25T10:32:44;4.75;;;2.13;;
44145;SDS011;29809;52.432;4.780;2024-03-25T10:35:09;6.93;;;2.22;;
44145;SDS011;29809;52.432;4.780;2024-03-25T10:37:35;5.78;;;2.40;;
44145;SDS011;29809;52.432;4.780;2024-03-25T10:40:00;10.27;;;2.17;;
44145;SDS011;29809;52.432;4.780;2024-03-25T10:42:26;6.47;;;2.30;;
44145;SDS011;29809;52.432;4.780;2024-03-25T10:44:51;4.72;;;2.03;;
44145;SDS011;29809;52.432;4.780;2024-03-25T10:47:21;5.25;;;1.92;;
44145;SDS011;29809;52.432;4.780;2024-03-25T10:49:52;4.32;;;2.30;;
44145;SDS011;29809;52.432;4.780;2024-03-25T10:52:20;5.72;;;2.15;;
44145;SDS011;29809;52.432;4.780;2024-03-25T10:54:46;4.30;;;1.77;;
44145;SDS011;29809;52.432;4.780;2024-03-25T10:57:12;6.68;;;2.42;;
44145;SDS011;29809;52.432;4.780;2024-03-25T10:59:38;4.13;;;1.90;;
44145;SDS011;29809;52.432;4.780;2024-03-25T11:02:06;5.00;;;2.10;;
44145;SDS011;29809;52.432;4.780;2024-03-25T11:04:31;6.00;;;2.33;;
44145;SDS011;29809;52.432;4.780;2024-03-25T11:07:06;3.47;;;2.05;;
44145;SDS011;29809;52.432;4.780;2024-03-25T11:09:31;5.57;;;2.00;;
44145;SDS011;29809;52.432;4.780;2024-03-25T11:11:56;5.05;;;2.40;;
44145;SDS011;29809;52.432;4.780;2024-03-25T11:14:26;5.22;;;2.15;;
44145;SDS011;29809;52.432;4.780;2024-03-25T11:16:54;5.28;;;2.35;;
44145;SDS011;29809;52.432;4.780;2024-03-25T11:19:20;6.97;;;2.00;;
44145;SDS011;29809;52.432;4.780;2024-03-25T11:21:46;5.05;;;2.20;;
44145;SDS011;29809;52.432;4.780;2024-03-25T11:24:11;4.63;;;2.08;;
44145;SDS011;29809;52.432;4.780;2024-03-25T11:26:40;6.82;;;2.85;;
44145;SDS011;29809;52.432;4.780;2024-03-25T11:29:05;5.22;;;2.15;;
44145;SDS011;29809;52.432;4.780;2024-03-25T11:31:32;5.90;;;2.50;;
44145;SDS011;29809;52.432;4.780;2024-03-25T11:33:58;5.28;;;2.20;;
44145;SDS011;29809;52.432;4.780;2024-03-25T11:36:28;5.65;;;2.72;;
44145;SDS011;29809;52.432;4.780;2024-03-25T11:39:02;7.50;;;2.75;;
44145;SDS011;29809;52.432;4.780;2024-03-25T11:41:34;3.97;;;1.90;;
44145;SDS011;29809;52.432;4.780;2024-03-25T11:44:00;6.50;;;2.40;;
44145;SDS011;29809;52.432;4.780;2024-03-25T11:46:26;4.10;;;1.95;;
44145;SDS011;29809;52.432;4.780;2024-03-25T11:48:52;4.82;;;2.10;;
44145;SDS011;29809;52.432;4.780;2024-03-25T11:51:17;4.38;;;2.38;;
44145;SDS011;29809;52.432;4.780;2024-03-25T11:53:43;7.90;;;2.80;;
44145;SDS011;29809;52.432;4.780;2024-03-25T11:56:08;7.53;;;2.33;;
44145;SDS011;29809;52.432;4.780;2024-03-25T11:58:33;5.95;;;2.28;;
44145;SDS011;29809;52.432;4.780;2024-03-25T12:00:58;7.53;;;2.80;;
44145;SDS011;29809;52.432;4.780;2024-03-25T12:03:23;3.80;;;1.85;;
44145;SDS011;29809;52.432;4.780;2024-03-25T12:05:49;4.45;;;2.08;;
44145;SDS011;29809;52.432;4.780;2024-03-25T12:08:14;4.57;;;2.00;;
44145;SDS011;29809;52.432;4.780;2024-03-25T12:10:39;4.63;;;2.05;;
44145;SDS011;29809;52.432;4.780;2024-03-25T12:13:23;5.15;;;2.30;;
44145;SDS011;29809;52.432;4.780;2024-03-25T12:15:50;6.38;;;2.50;;
44145;SDS011;29809;52.432;4.780;2024-03-25T12:18:15;4.35;;;1.90;;
44145;SDS011;29809;52.432;4.780;2024-03-25T12:20:41;6.18;;;2.10;;
44145;SDS011;29809;52.432;4.780;2024-03-25T12:23:06;4.25;;;2.10;;
44145;SDS011;29809;52.432;4.780;2024-03-25T12:25:32;4.05;;;2.28;;
44145;SDS011;29809;52.432;4.780;2024-03-25T12:27:57;4.55;;;2.22;;
44145;SDS011;29809;52.432;4.780;2024-03-25T12:30:22;5.25;;;2.10;;
44145;SDS011;29809;52.432;4.780;2024-03-25T12:32:48;2.50;;;1.65;;
44145;SDS011;29809;52.432;4.780;2024-03-25T12:35:14;3.75;;;2.25;;
44145;SDS011;29809;52.432;4.780;2024-03-25T12:37:41;4.65;;;1.75;;
44145;SDS011;29809;52.432;4.780;2024-03-25T12:40:07;4.32;;;1.85;;
44145;SDS011;29809;52.432;4.780;2024-03-25T12:42:34;4.03;;;1.70;;
44145;SDS011;29809;52.432;4.780;2024-03-25T12:44:59;2.80;;;1.60;;
44145;SDS011;29809;52.432;4.780;2024-03-25T12:47:24;3.47;;;1.80;;
44145;SDS011;29809;52.432;4.780;2024-03-25T12:49:50;2.10;;;1.60;;
44145;SDS011;29809;52.432;4.780;2024-03-25T12:52:15;5.28;;;2.15;;
44145;SDS011;29809;52.432;4.780;2024-03-25T12:54:40;4.50;;;2.40;;
44145;SDS011;29809;52.432;4.780;2024-03-25T12:57:06;3.88;;;2.08;;
44145;SDS011;29809;52.432;4.780;2024-03-25T12:59:32;2.30;;;1.63;;
44145;SDS011;29809;52.432;4.780;2024-03-25T13:01:57;2.30;;;1.77;;
44145;SDS011;29809;52.432;4.780;2024-03-25T13:04:25;3.85;;;2.90;;
44145;SDS011;29809;52.432;4.780;2024-03-25T13:06:50;4.13;;;2.58;;
44145;SDS011;29809;52.432;4.780;2024-03-25T13:09:15;2.30;;;1.92;;
44145;SDS011;29809;52.432;4.780;2024-03-25T13:11:41;4.00;;;2.17;;
44145;SDS011;29809;52.432;4.780;2024-03-25T13:14:06;3.20;;;1.90;;
44145;SDS011;29809;52.432;4.780;2024-03-25T13:16:32;2.95;;;2.10;;
44145;SDS011;29809;52.432;4.780;2024-03-25T13:18:57;3.28;;;1.85;;
44145;SDS011;29809;52.432;4.780;2024-03-25T13:21:23;2.80;;;1.98;;
44145;SDS011;29809;52.432;4.780;2024-03-25T13:23:50;5.65;;;3.15;;
44145;SDS011;29809;52.432;4.780;2024-03-25T13:26:15;3.40;;;2.10;;
44145;SDS011;29809;52.432;4.780;2024-03-25T13:28:40;4.53;;;2.20;;
44145;SDS011;29809;52.432;4.780;2024-03-25T13:31:05;3.55;;;2.05;;
44145;SDS011;29809;52.432;4.780;2024-03-25T13:33:31;5.13;;;2.63;;
44145;SDS011;29809;52.432;4.780;2024-03-25T13:35:56;4.38;;;2.00;;
44145;SDS011;29809;52.432;4.780;2024-03-25T13:38:21;4.38;;;2.40;;
44145;SDS011;29809;52.432;4.780;2024-03-25T13:40:46;3.40;;;2.10;;
44145;SDS011;29809;52.432;4.780;2024-03-25T13:43:11;3.75;;;2.13;;
44145;SDS011;29809;52.432;4.780;2024-03-25T13:45:45;4.35;;;2.10;;
44145;SDS011;29809;52.432;4.780;2024-03-25T13:48:10;1.73;;;1.50;;
44145;SDS011;29809;52.432;4.780;2024-03-25T13:50:36;2.88;;;2.08;;
44145;SDS011;29809;52.432;4.780;2024-03-25T13:53:01;2.97;;;1.85;;
44145;SDS011;29809;52.432;4.780;2024-03-25T13:55:27;3.00;;;2.15;;
44145;SDS011;29809;52.432;4.780;2024-03-25T13:57:52;2.58;;;1.55;;
44145;SDS011;29809;52.432;4.780;2024-03-25T14:00:18;3.65;;;2.10;;
44145;SDS011;29809;52.432;4.780;2024-03-25T14:02:43;3.00;;;1.63;;
44145;SDS011;29809;52.432;4.780;2024-03-25T14:05:08;2.22;;;1.55;;
44145;SDS011;29809;52.432;4.780;2024-03-25T14:07:34;3.80;;;1.77;;
44145;SDS011;29809;52.432;4.780;2024-03-25T14:09:59;2.75;;;1.88;;
44145;SDS011;29809;52.432;4.780;2024-03-25T14:12:24;3.10;;;1.83;;
44145;SDS011;29809;52.432;4.780;2024-03-25T14:14:50;5.25;;;1.67;;
44145;SDS011;29809;52.432;4.780;2024-03-25T14:17:15;2.75;;;1.60;;
44145;SDS011;29809;52.432;4.780;2024-03-25T14:19:40;2.72;;;1.83;;
44145;SDS011;29809;52.432;4.780;2024-03-25T14:22:05;2.63;;;1.67;;
44145;SDS011;29809;52.432;4.780;2024-03-25T14:24:30;2.25;;;1.80;;
44145;SDS011;29809;52.432;4.780;2024-03-25T14:26:56;2.67;;;1.70;;
44145;SDS011;29809;52.432;4.780;2024-03-25T14:29:21;1.92;;;1.25;;
44145;SDS011;29809;52.432;4.780;2024-03-25T14:31:46;2.53;;;1.30;;
44145;SDS011;29809;52.432;4.780;2024-03-25T14:34:11;1.60;;;1.48;;
44145;SDS011;29809;52.432;4.780;2024-03-25T14:36:37;2.15;;;1.50;;
44145;SDS011;29809;52.432;4.780;2024-03-25T14:39:02;3.03;;;1.80;;